Terminal Aerodrome Forecast
Issued by NWS

Home | Current Version | Previous Version | Text Only | Print | Product List | Glossary On
Versions: 1 2 3 4 5 6 7 8 9 10 11 12 13 14 15 16 17 18 19 20 21 22 23 24 25 26 27 28 29 30 31 32 33 34 35 36 37
000
FTUS45 KCYS 281734
TAFAIA
TAF
KAIA 281734Z 2818/2918 30010KT P6SM BKN120
     FM282000 32010KT P6SM VCTS SCT050CB BKN100
      TEMPO 2821/2901 VRB15G30KT 3SM -TSRA BKN030CB OVC100
     FM290600 32008KT P6SM VCSH SCT015 BKN025 OVC100=

USA.gov is the U.S. government's official web portal to all federal, state and local government web resources and services.